Time;durP1;ratioP1;P1;durP2;ratioP2;P2;SDS_P1;SDS_P2;PMS_P1;PMS_P2;Temp;Humidity;BMP_temperature;BMP_pressure;BME280_temperature;BME280_humidity;BME280_pressure;Samples;Min_cycle;Max_cycle;Signal;HPM_P1;HPM_P2
2024/01/12 00:01:54;;;;;;;1.10;1.10;;;;;;;;;;6213517;28;20289;-74
2024/01/12 00:04:59;;;;;;;1.90;1.17;;;;;;;;;;6230925;28;20609;-74
2024/01/12 00:08:03;;;;;;;0.90;0.90;;;;;;;;;;6211270;28;20306;-73
2024/01/12 00:11:08;;;;;;;1.10;1.10;;;;;;;;;;6223657;28;20298;-73
2024/01/12 00:14:15;;;;;;;1.20;1.20;;;;;;;;;;6236781;28;20297;-73
2024/01/12 00:17:19;;;;;;;1.00;1.00;;;;;;;;;;6212504;28;20591;-74
2024/01/12 00:20:23;;;;;;;1.13;1.13;;;;;;;;;;6211089;28;20290;-73
2024/01/12 00:23:27;;;;;;;1.00;1.00;;;;;;;;;;6211093;28;20307;-73
2024/01/12 00:26:31;;;;;;;1.20;1.20;;;;;;;;;;6211534;28;20300;-74
2024/01/12 00:29:37;;;;;;;0.80;0.80;;;;;;;;;;6211143;28;20306;-74
2024/01/12 00:32:40;;;;;;;0.97;0.97;;;;;;;;;;6211270;28;20299;-74
2024/01/12 00:35:44;;;;;;;1.20;1.10;;;;;;;;;;6210892;28;20300;-73
2024/01/12 00:38:49;;;;;;;0.97;0.97;;;;;;;;;;6210493;28;20299;-73
2024/01/12 00:41:54;;;;;;;1.07;0.90;;;;;;;;;;6211323;28;20295;-73
2024/01/12 00:44:59;;;;;;;1.10;1.10;;;;;;;;;;6210902;28;20293;-74
2024/01/12 00:48:05;;;;;;;1.00;1.00;;;;;;;;;;6209784;28;20304;-73
2024/01/12 00:51:11;;;;;;;1.20;1.10;;;;;;;;;;6193688;28;20476;-74
2024/01/12 00:54:20;;;;;;;0.83;0.83;;;;;;;;;;6212890;28;20299;-73
2024/01/12 00:57:24;;;;;;;1.10;1.03;;;;;;;;;;6214758;28;20312;-73
2024/01/12 01:00:30;;;;;;;1.80;1.10;;;;;;;;;;6214974;28;20300;-73
2024/01/12 01:03:35;;;;;;;0.93;0.93;;;;;;;;;;6229668;28;20288;-73
2024/01/12 01:06:39;;;;;;;0.97;0.90;;;;;;;;;;6239236;28;20295;-73
2024/01/12 01:09:43;;;;;;;0.90;0.87;;;;;;;;;;6238715;28;20298;-73
2024/01/12 01:12:46;;;;;;;0.90;0.90;;;;;;;;;;6214506;28;20325;-75
2024/01/12 01:15:52;;;;;;;1.30;1.20;;;;;;;;;;6197168;28;20602;-74
2024/01/12 01:18:56;;;;;;;0.97;0.97;;;;;;;;;;6214057;28;20319;-73
2024/01/12 01:22:00;;;;;;;1.00;1.00;;;;;;;;;;6231674;28;20297;-73
2024/01/12 01:25:04;;;;;;;1.07;0.90;;;;;;;;;;6238307;28;20300;-73
2024/01/12 01:28:08;;;;;;;0.90;0.90;;;;;;;;;;6238530;28;20520;-73
2024/01/12 01:31:14;;;;;;;1.70;1.00;;;;;;;;;;6228980;28;20299;-74
2024/01/12 01:34:18;;;;;;;1.07;1.07;;;;;;;;;;6213997;28;20298;-73
2024/01/12 01:37:22;;;;;;;1.40;0.90;;;;;;;;;;6233921;28;20474;-73
2024/01/12 01:40:26;;;;;;;0.97;0.97;;;;;;;;;;6237809;28;20289;-72
2024/01/12 01:43:30;;;;;;;0.90;0.90;;;;;;;;;;6219942;28;20306;-73
2024/01/12 01:46:36;;;;;;;1.10;1.10;;;;;;;;;;6238311;28;20254;-73
2024/01/12 01:49:40;;;;;;;1.80;1.10;;;;;;;;;;6237422;28;20309;-73
2024/01/12 01:52:45;;;;;;;0.80;0.80;;;;;;;;;;6229386;28;20409;-74
2024/01/12 01:55:49;;;;;;;0.80;0.80;;;;;;;;;;6218940;28;20289;-74
2024/01/12 01:58:53;;;;;;;0.80;0.80;;;;;;;;;;6219796;28;20289;-74
2024/01/12 02:01:59;;;;;;;0.90;0.90;;;;;;;;;;6237570;28;20287;-74
2024/01/12 02:05:04;;;;;;;4.47;0.83;;;;;;;;;;6236820;28;20434;-74
2024/01/12 02:08:08;;;;;;;0.93;0.90;;;;;;;;;;6237478;28;20589;-73
2024/01/12 02:11:12;;;;;;;0.90;0.90;;;;;;;;;;6233440;28;20293;-73
2024/01/12 02:14:16;;;;;;;0.80;0.80;;;;;;;;;;6237418;28;20373;-72
2024/01/12 02:17:22;;;;;;;1.00;1.00;;;;;;;;;;6237280;28;20481;-73
2024/01/12 02:20:26;;;;;;;0.90;0.90;;;;;;;;;;6217989;28;20477;-73
2024/01/12 02:23:32;;;;;;;0.97;0.97;;;;;;;;;;6212463;28;20306;-74
2024/01/12 02:26:36;;;;;;;0.90;0.90;;;;;;;;;;6213187;28;20304;-73
2024/01/12 02:29:40;;;;;;;0.90;0.90;;;;;;;;;;6212654;28;20309;-73
2024/01/12 02:32:44;;;;;;;0.90;0.90;;;;;;;;;;6232250;28;20294;-73
2024/01/12 02:35:48;;;;;;;1.40;1.00;;;;;;;;;;6236338;28;20288;-73
2024/01/12 02:38:53;;;;;;;1.03;1.03;;;;;;;;;;6236828;28;20294;-73
2024/01/12 02:41:57;;;;;;;1.00;1.00;;;;;;;;;;6224199;28;20351;-73
2024/01/12 02:45:01;;;;;;;1.50;1.00;;;;;;;;;;6213725;28;20298;-73
2024/01/12 02:48:06;;;;;;;1.17;1.17;;;;;;;;;;6211998;28;20293;-73
2024/01/12 02:51:10;;;;;;;1.00;1.00;;;;;;;;;;6212873;28;20286;-73
2024/01/12 02:54:15;;;;;;;1.17;1.10;;;;;;;;;;6211992;28;20289;-73
2024/01/12 02:57:19;;;;;;;1.00;1.00;;;;;;;;;;6226655;28;20294;-73
2024/01/12 03:00:24;;;;;;;1.20;1.10;;;;;;;;;;6236278;28;20299;-73
2024/01/12 03:03:28;;;;;;;1.30;1.20;;;;;;;;;;6221248;28;20290;-73
2024/01/12 03:06:32;;;;;;;1.30;1.30;;;;;;;;;;6212552;28;20299;-73
2024/01/12 03:09:40;;;;;;;1.00;1.00;;;;;;;;;;6193937;28;20297;-73
2024/01/12 03:12:44;;;;;;;1.13;1.13;;;;;;;;;;6205092;28;20466;-73
2024/01/12 03:15:48;;;;;;;1.57;1.20;;;;;;;;;;6211283;28;20295;-75
2024/01/12 03:18:52;;;;;;;1.00;1.00;;;;;;;;;;6211460;28;20294;-73
2024/01/12 03:21:56;;;;;;;1.23;1.20;;;;;;;;;;6211997;28;20294;-74
2024/01/12 03:25:02;;;;;;;1.07;1.07;;;;;;;;;;6212187;28;20298;-74
2024/01/12 03:28:08;;;;;;;1.00;1.00;;;;;;;;;;6193618;28;20454;-73
2024/01/12 03:31:12;;;;;;;1.07;1.03;;;;;;;;;;6211609;28;20303;-73
2024/01/12 03:34:18;;;;;;;1.03;1.03;;;;;;;;;;6193474;28;20305;-73
2024/01/12 03:37:22;;;;;;;0.90;0.90;;;;;;;;;;6211905;28;20298;-74
2024/01/12 03:40:28;;;;;;;0.90;0.90;;;;;;;;;;6210524;28;20297;-75
2024/01/12 03:43:32;;;;;;;1.00;1.00;;;;;;;;;;6211278;28;20299;-73
2024/01/12 03:46:37;;;;;;;1.80;0.97;;;;;;;;;;6211327;28;20267;-73
2024/01/12 03:49:41;;;;;;;0.80;0.80;;;;;;;;;;6210706;28;20304;-73
2024/01/12 03:52:44;;;;;;;1.00;1.00;;;;;;;;;;6211409;28;20450;-73
2024/01/12 03:55:50;;;;;;;1.00;1.00;;;;;;;;;;6210263;28;20289;-73
2024/01/12 03:58:54;;;;;;;0.90;0.90;;;;;;;;;;6210890;28;20294;-73
2024/01/12 04:01:58;;;;;;;0.87;0.87;;;;;;;;;;6194281;28;20501;-72
2024/01/12 04:05:03;;;;;;;0.90;0.90;;;;;;;;;;6200175;28;20481;-73
2024/01/12 04:08:07;;;;;;;0.80;0.80;;;;;;;;;;6233002;28;20305;-73
2024/01/12 04:11:22;;;;;;;1.00;1.00;;;;;;;;;;6222901;28;20367;-73
2024/01/12 04:14:27;;;;;;;1.30;1.10;;;;;;;;;;6193630;28;20295;-74
2024/01/12 04:17:31;;;;;;;1.90;0.80;;;;;;;;;;6192985;28;20299;-74
2024/01/12 04:20:36;;;;;;;0.70;0.70;;;;;;;;;;6193841;28;20306;-74
2024/01/12 04:23:40;;;;;;;0.80;0.80;;;;;;;;;;6210795;28;20295;-73
2024/01/12 04:26:46;;;;;;;0.80;0.80;;;;;;;;;;6211376;28;20313;-73
2024/01/12 04:29:50;;;;;;;0.80;0.80;;;;;;;;;;6213998;28;20304;-73
2024/01/12 04:32:54;;;;;;;0.80;0.80;;;;;;;;;;6214221;28;20310;-73
2024/01/12 04:36:01;;;;;;;0.80;0.80;;;;;;;;;;6234113;28;20462;-74
2024/01/12 04:39:06;;;;;;;0.77;0.77;;;;;;;;;;6197823;28;20391;-73
2024/01/12 04:42:11;;;;;;;2.63;0.70;;;;;;;;;;6215270;28;20312;-73
2024/01/12 04:45:15;;;;;;;1.90;0.93;;;;;;;;;;6215166;28;20303;-74
2024/01/12 04:48:19;;;;;;;0.80;0.80;;;;;;;;;;6214437;28;20308;-73
2024/01/12 04:51:23;;;;;;;0.70;0.70;;;;;;;;;;6215730;28;20296;-74
2024/01/12 04:54:27;;;;;;;0.80;0.80;;;;;;;;;;6213862;28;20433;-73
2024/01/12 04:57:32;;;;;;;0.93;0.80;;;;;;;;;;6214595;28;20467;-74
2024/01/12 05:00:36;;;;;;;0.73;0.73;;;;;;;;;;6214734;28;20299;-74
2024/01/12 05:03:43;;;;;;;0.73;0.73;;;;;;;;;;6196454;28;20298;-73
2024/01/12 05:06:47;;;;;;;1.43;0.80;;;;;;;;;;6215619;28;20287;-74
2024/01/12 05:09:50;;;;;;;0.70;0.70;;;;;;;;;;6218373;28;20340;-74
2024/01/12 05:12:56;;;;;;;0.70;0.70;;;;;;;;;;6238876;28;21196;-74
2024/01/12 05:16:00;;;;;;;0.70;0.70;;;;;;;;;;6240358;28;20332;-72
2024/01/12 05:19:04;;;;;;;0.70;0.70;;;;;;;;;;6238474;28;20592;-72
2024/01/12 05:22:08;;;;;;;1.23;0.90;;;;;;;;;;6237268;28;20294;-73
2024/01/12 05:25:12;;;;;;;1.07;0.80;;;;;;;;;;6238420;28;20481;-73
2024/01/12 05:28:19;;;;;;;0.70;0.70;;;;;;;;;;6222060;28;20295;-73
2024/01/12 05:31:23;;;;;;;1.80;0.73;;;;;;;;;;6215287;28;20292;-73
2024/01/12 05:34:27;;;;;;;0.90;0.90;;;;;;;;;;6237822;28;20322;-74
2024/01/12 05:37:31;;;;;;;0.90;0.90;;;;;;;;;;6237525;28;20448;-74
2024/01/12 05:40:35;;;;;;;0.80;0.80;;;;;;;;;;6238165;28;20244;-73
2024/01/12 05:43:40;;;;;;;2.47;0.80;;;;;;;;;;6219248;28;20295;-73
2024/01/12 05:46:44;;;;;;;0.70;0.70;;;;;;;;;;6213993;28;20561;-73
2024/01/12 05:49:48;;;;;;;0.90;0.90;;;;;;;;;;6213131;28;20304;-74
2024/01/12 05:52:52;;;;;;;1.13;0.87;;;;;;;;;;6213432;28;20292;-73
2024/01/12 05:55:56;;;;;;;1.43;0.80;;;;;;;;;;6213889;28;20578;-73
2024/01/12 05:59:02;;;;;;;2.10;0.70;;;;;;;;;;6224226;28;20292;-74
2024/01/12 06:02:06;;;;;;;0.90;0.90;;;;;;;;;;6213139;28;20287;-73
2024/01/12 06:05:11;;;;;;;0.90;0.90;;;;;;;;;;6212877;28;20296;-73
2024/01/12 06:08:15;;;;;;;0.70;0.70;;;;;;;;;;6227134;28;20304;-73
2024/01/12 06:11:19;;;;;;;0.83;0.80;;;;;;;;;;6222181;28;20333;-73
2024/01/12 06:14:25;;;;;;;0.87;0.87;;;;;;;;;;6195607;28;20300;-73
2024/01/12 06:17:29;;;;;;;1.23;0.80;;;;;;;;;;6213340;28;20298;-73
2024/01/12 06:20:33;;;;;;;0.90;0.90;;;;;;;;;;6212337;28;20312;-73
2024/01/12 06:23:37;;;;;;;0.70;0.70;;;;;;;;;;6228667;28;20299;-73
2024/01/12 06:26:42;;;;;;;0.97;0.97;;;;;;;;;;6237005;28;20288;-75
2024/01/12 06:29:48;;;;;;;1.00;0.90;;;;;;;;;;6236787;28;20291;-74
2024/01/12 06:32:52;;;;;;;0.80;0.80;;;;;;;;;;6236187;28;20292;-74
2024/01/12 06:35:56;;;;;;;1.43;0.90;;;;;;;;;;6237023;28;20288;-74
2024/01/12 06:39:00;;;;;;;1.40;0.80;;;;;;;;;;6236369;28;20301;-74
2024/01/12 06:42:05;;;;;;;0.93;0.80;;;;;;;;;;6236857;28;20300;-72
2024/01/12 06:45:11;;;;;;;0.80;0.80;;;;;;;;;;6236612;28;20476;-74
2024/01/12 06:48:15;;;;;;;0.70;0.70;;;;;;;;;;6235723;28;20295;-73
2024/01/12 06:51:23;;;;;;;0.73;0.73;;;;;;;;;;6236413;28;20505;-74
2024/01/12 06:54:27;;;;;;;1.27;0.90;;;;;;;;;;6213914;28;20297;-70
2024/01/12 06:57:31;;;;;;;6.60;0.80;;;;;;;;;;6211361;28;20565;-72
2024/01/12 07:00:36;;;;;;;0.80;0.80;;;;;;;;;;6212416;28;20297;-74
2024/01/12 07:03:40;;;;;;;0.73;0.73;;;;;;;;;;6213514;28;20297;-72
2024/01/12 07:06:44;;;;;;;1.13;1.00;;;;;;;;;;6211668;28;20387;-74
2024/01/12 07:09:48;;;;;;;0.63;0.63;;;;;;;;;;6197626;28;20292;-74
2024/01/12 07:12:52;;;;;;;0.70;0.70;;;;;;;;;;6235634;28;20296;-73
2024/01/12 07:15:58;;;;;;;0.70;0.70;;;;;;;;;;6236474;28;20579;-73
2024/01/12 07:19:02;;;;;;;0.83;0.83;;;;;;;;;;6236317;28;20292;-73
2024/01/12 07:22:08;;;;;;;0.80;0.80;;;;;;;;;;6236323;28;20292;-74
2024/01/12 07:25:12;;;;;;;0.90;0.90;;;;;;;;;;6236500;28;20292;-73
2024/01/12 07:28:16;;;;;;;0.70;0.70;;;;;;;;;;6235260;28;20288;-73
2024/01/12 07:31:21;;;;;;;0.80;0.80;;;;;;;;;;6218174;28;20500;-73
2024/01/12 07:34:26;;;;;;;0.93;0.80;;;;;;;;;;6235217;28;20307;-73
2024/01/12 07:37:33;;;;;;;0.70;0.70;;;;;;;;;;6234315;28;20276;-73
2024/01/12 07:40:37;;;;;;;0.90;0.90;;;;;;;;;;6236491;28;20242;-73
2024/01/12 07:43:41;;;;;;;0.83;0.83;;;;;;;;;;6218421;28;20300;-72
2024/01/12 07:46:47;;;;;;;1.40;0.70;;;;;;;;;;6236065;28;20311;-73
2024/01/12 07:49:51;;;;;;;0.83;0.70;;;;;;;;;;6235241;28;20296;-72
2024/01/12 07:52:55;;;;;;;0.80;0.80;;;;;;;;;;6225992;28;20303;-73
2024/01/12 07:55:59;;;;;;;0.93;0.77;;;;;;;;;;6193959;28;20325;-73
2024/01/12 07:59:03;;;;;;;0.90;0.80;;;;;;;;;;6211372;28;20328;-72
2024/01/12 08:02:09;;;;;;;0.80;0.80;;;;;;;;;;6214793;28;20295;-73
2024/01/12 08:05:13;;;;;;;0.90;0.90;;;;;;;;;;6239214;28;20288;-72
2024/01/12 08:08:18;;;;;;;0.70;0.70;;;;;;;;;;6221922;28;20484;-73
2024/01/12 08:11:21;;;;;;;1.60;1.20;;;;;;;;;;6224620;28;20303;-73
2024/01/12 08:14:38;;;;;;;0.60;0.60;;;;;;;;;;6216540;28;20295;-74
2024/01/12 08:17:46;;;;;;;1.20;0.80;;;;;;;;;;6237100;28;20304;-73
2024/01/12 08:20:50;;;;;;;2.40;0.97;;;;;;;;;;6215998;28;20298;-73
2024/01/12 08:23:54;;;;;;;0.70;0.70;;;;;;;;;;6215067;28;20300;-73
2024/01/12 08:26:58;;;;;;;0.80;0.80;;;;;;;;;;6216661;28;20293;-73
2024/01/12 08:30:03;;;;;;;0.87;0.77;;;;;;;;;;6215875;28;20509;-73
2024/01/12 08:33:08;;;;;;;0.77;0.77;;;;;;;;;;6215700;28;20301;-74
2024/01/12 08:36:13;;;;;;;0.70;0.70;;;;;;;;;;6198574;28;20300;-72
2024/01/12 08:39:18;;;;;;;0.80;0.80;;;;;;;;;;6229571;28;20300;-72
2024/01/12 08:42:22;;;;;;;0.73;0.73;;;;;;;;;;6240086;28;20292;-73
2024/01/12 08:45:26;;;;;;;0.88;0.88;;;;;;;;;;6216274;28;20566;-72
2024/01/12 08:48:31;;;;;;;0.80;0.80;;;;;;;;;;6214883;28;20293;-73
2024/01/12 08:51:36;;;;;;;0.82;0.77;;;;;;;;;;6215279;28;20454;-73
2024/01/12 08:54:40;;;;;;;0.70;0.70;;;;;;;;;;6214770;28;20306;-73
2024/01/12 08:57:44;;;;;;;0.75;0.75;;;;;;;;;;6214535;28;20317;-73
2024/01/12 09:00:48;;;;;;;0.82;0.75;;;;;;;;;;6215048;28;20285;-73
2024/01/12 09:03:54;;;;;;;1.00;1.00;;;;;;;;;;6214365;28;20292;-72
2024/01/12 09:07:00;;;;;;;0.68;0.68;;;;;;;;;;6215105;28;20289;-73
2024/01/12 09:10:06;;;;;;;0.80;0.80;;;;;;;;;;6227631;28;20320;-72
2024/01/12 09:13:10;;;;;;;1.95;0.80;;;;;;;;;;6214479;28;20301;-73
2024/01/12 09:16:13;;;;;;;0.87;0.87;;;;;;;;;;6214569;28;20297;-73
2024/01/12 09:19:20;;;;;;;1.77;0.85;;;;;;;;;;6214338;28;20593;-73
2024/01/12 09:22:27;;;;;;;0.65;0.63;;;;;;;;;;6196595;28;20600;-73
2024/01/12 09:25:32;;;;;;;0.80;0.80;;;;;;;;;;6214067;28;20288;-72
2024/01/12 09:28:36;;;;;;;0.80;0.80;;;;;;;;;;6210261;28;20297;-72
2024/01/12 09:31:41;;;;;;;0.80;0.80;;;;;;;;;;6238285;28;20344;-72
2024/01/12 09:34:46;;;;;;;0.70;0.70;;;;;;;;;;6221471;28;20322;-73
2024/01/12 09:37:51;;;;;;;0.82;0.82;;;;;;;;;;6221179;28;20483;-73
2024/01/12 09:40:54;;;;;;;2.17;0.90;;;;;;;;;;6239336;28;20299;-72
2024/01/12 09:44:00;;;;;;;0.93;0.90;;;;;;;;;;6230193;28;20301;-72
2024/01/12 09:47:05;;;;;;;0.98;0.98;;;;;;;;;;6214092;28;20297;-73
2024/01/12 09:50:11;;;;;;;1.27;1.10;;;;;;;;;;6213115;28;20296;-73
2024/01/12 09:53:15;;;;;;;0.70;0.70;;;;;;;;;;6227243;28;20305;-73
2024/01/12 09:56:20;;;;;;;0.90;0.90;;;;;;;;;;6238594;28;20293;-73
2024/01/12 09:59:31;;;;;;;0.93;0.80;;;;;;;;;;6238056;28;20466;-73
2024/01/12 10:02:35;;;;;;;0.90;0.90;;;;;;;;;;6238031;28;20304;-73
2024/01/12 10:05:41;;;;;;;0.90;0.90;;;;;;;;;;6238679;28;20296;-73
2024/01/12 10:08:45;;;;;;;0.80;0.80;;;;;;;;;;6232886;28;20585;-73
2024/01/12 10:11:49;;;;;;;1.00;1.00;;;;;;;;;;6213830;28;20595;-74
2024/01/12 10:15:02;;;;;;;1.02;1.02;;;;;;;;;;6214370;28;20300;-74
2024/01/12 10:18:07;;;;;;;0.97;0.97;;;;;;;;;;6213127;28;20297;-73
2024/01/12 10:21:14;;;;;;;1.20;1.20;;;;;;;;;;6213928;28;20289;-73
2024/01/12 10:24:18;;;;;;;0.90;0.90;;;;;;;;;;6213114;28;20308;-73
2024/01/12 10:27:22;;;;;;;2.10;0.98;;;;;;;;;;6212315;28;20305;-75
2024/01/12 10:30:27;;;;;;;1.23;1.23;;;;;;;;;;6212608;28;20297;-73
2024/01/12 10:33:32;;;;;;;1.60;1.03;;;;;;;;;;6195027;28;20484;-73
2024/01/12 10:36:38;;;;;;;1.20;1.10;;;;;;;;;;6213057;28;20303;-73
2024/01/12 10:39:46;;;;;;;2.23;1.10;;;;;;;;;;6212211;28;20305;-73
2024/01/12 10:42:50;;;;;;;1.00;1.00;;;;;;;;;;6212299;28;20296;-73
2024/01/12 10:45:58;;;;;;;1.10;1.10;;;;;;;;;;6212936;28;20318;-73
2024/01/12 10:49:07;;;;;;;1.00;0.90;;;;;;;;;;6194751;28;20300;-73
2024/01/12 10:52:17;;;;;;;1.00;1.00;;;;;;;;;;6195324;28;20301;-72
2024/01/12 10:55:24;;;;;;;0.90;0.90;;;;;;;;;;6227920;28;20296;-72
2024/01/12 10:58:37;;;;;;;1.45;1.42;;;;;;;;;;6195642;28;20297;-73
2024/01/12 11:01:41;;;;;;;1.15;1.15;;;;;;;;;;6211340;28;20241;-73
2024/01/12 11:04:46;;;;;;;1.47;1.37;;;;;;;;;;6198282;28;20573;-72
2024/01/12 11:07:51;;;;;;;1.63;1.05;;;;;;;;;;6212167;28;20284;-73
2024/01/12 11:10:57;;;;;;;1.50;1.33;;;;;;;;;;6225002;28;20292;-74
2024/01/12 11:14:02;;;;;;;0.90;0.90;;;;;;;;;;6218543;28;20300;-74
2024/01/12 11:17:09;;;;;;;1.30;1.20;;;;;;;;;;6219003;28;20573;-72
2024/01/12 11:20:14;;;;;;;1.30;1.20;;;;;;;;;;6236119;28;20288;-72
2024/01/12 11:23:20;;;;;;;2.22;2.03;;;;;;;;;;6235321;28;20292;-71
2024/01/12 11:26:24;;;;;;;1.00;1.00;;;;;;;;;;6236141;28;20305;-73
2024/01/12 11:29:31;;;;;;;1.10;1.10;;;;;;;;;;6235655;28;20284;-72
2024/01/12 11:32:36;;;;;;;1.33;1.33;;;;;;;;;;6235893;28;20620;-73
2024/01/12 11:35:46;;;;;;;1.88;1.77;;;;;;;;;;6236134;28;20295;-72
2024/01/12 11:38:55;;;;;;;1.10;1.10;;;;;;;;;;6235499;28;20300;-73
2024/01/12 11:42:01;;;;;;;1.40;1.40;;;;;;;;;;6236299;28;20299;-74
2024/01/12 11:45:09;;;;;;;1.37;0.80;;;;;;;;;;6235937;28;20296;-72
2024/01/12 11:48:14;;;;;;;2.15;1.02;;;;;;;;;;6235326;28;20545;-72
2024/01/12 11:51:23;;;;;;;1.00;1.00;;;;;;;;;;6218993;28;20288;-72
2024/01/12 11:54:29;;;;;;;1.00;1.00;;;;;;;;;;6235341;28;20284;-72
2024/01/12 11:57:33;;;;;;;1.10;1.10;;;;;;;;;;6222968;28;20300;-73
2024/01/12 12:00:37;;;;;;;1.05;1.05;;;;;;;;;;6194966;28;20300;-72
2024/01/12 12:03:41;;;;;;;0.93;0.90;;;;;;;;;;6227760;28;20304;-72
2024/01/12 12:06:46;;;;;;;0.80;0.80;;;;;;;;;;6217327;28;20292;-72
2024/01/12 12:09:52;;;;;;;0.90;0.90;;;;;;;;;;6214236;28;20481;-72
2024/01/12 12:12:56;;;;;;;1.23;1.00;;;;;;;;;;6235820;28;20292;-73
2024/01/12 12:16:00;;;;;;;1.00;1.00;;;;;;;;;;6235600;28;20293;-73
2024/01/12 12:19:04;;;;;;;0.90;0.90;;;;;;;;;;6235197;28;20312;-73
2024/01/12 12:22:09;;;;;;;0.90;0.90;;;;;;;;;;6211343;28;20365;-72
2024/01/12 12:25:17;;;;;;;0.93;0.93;;;;;;;;;;6220312;28;20296;-71
2024/01/12 12:28:21;;;;;;;0.98;0.98;;;;;;;;;;6235267;28;20308;-73
2024/01/12 12:31:27;;;;;;;1.13;1.13;;;;;;;;;;6235120;28;20304;-72
2024/01/12 12:34:31;;;;;;;0.93;0.93;;;;;;;;;;6234139;28;20292;-73
2024/01/12 12:37:35;;;;;;;1.95;0.75;;;;;;;;;;6217149;28;20435;-73
2024/01/12 12:40:44;;;;;;;0.80;0.80;;;;;;;;;;6235407;28;20257;-73
2024/01/12 12:43:50;;;;;;;1.30;1.20;;;;;;;;;;6235486;28;20292;-73
2024/01/12 12:46:54;;;;;;;1.98;0.90;;;;;;;;;;6214958;28;20484;-74
2024/01/12 12:49:59;;;;;;;2.38;1.10;;;;;;;;;;6218861;28;20472;-73
2024/01/12 12:53:03;;;;;;;1.40;0.95;;;;;;;;;;6221424;28;20299;-73
2024/01/12 12:56:09;;;;;;;1.23;1.13;;;;;;;;;;6236239;28;20308;-73
2024/01/12 12:59:13;;;;;;;2.58;1.15;;;;;;;;;;6197342;28;20492;-73
2024/01/12 13:02:17;;;;;;;1.00;1.00;;;;;;;;;;6202288;28;20300;-73
2024/01/12 13:05:21;;;;;;;1.48;0.77;;;;;;;;;;6231009;28;20581;-73
2024/01/12 13:08:26;;;;;;;1.10;1.10;;;;;;;;;;6214216;28;20293;-73
2024/01/12 13:11:31;;;;;;;2.95;0.98;;;;;;;;;;6232515;28;20304;-74
2024/01/12 13:14:35;;;;;;;0.80;0.80;;;;;;;;;;6238580;28;20294;-73
2024/01/12 13:17:40;;;;;;;1.77;1.00;;;;;;;;;;6238551;28;20481;-74
2024/01/12 13:20:46;;;;;;;0.80;0.80;;;;;;;;;;6238396;28;20301;-73
2024/01/12 13:23:51;;;;;;;0.98;0.98;;;;;;;;;;6238613;28;20284;-73
2024/01/12 13:26:56;;;;;;;0.90;0.90;;;;;;;;;;6238514;28;20300;-73
2024/01/12 13:30:00;;;;;;;0.90;0.90;;;;;;;;;;6238888;28;20288;-74
2024/01/12 13:33:05;;;;;;;0.77;0.77;;;;;;;;;;6239436;28;20284;-73
2024/01/12 13:36:09;;;;;;;0.80;0.80;;;;;;;;;;6239083;28;20288;-72
2024/01/12 13:39:14;;;;;;;2.17;0.80;;;;;;;;;;6238830;28;20297;-72
2024/01/12 13:42:22;;;;;;;0.95;0.95;;;;;;;;;;6221734;28;20474;-73
2024/01/12 13:45:26;;;;;;;0.90;0.90;;;;;;;;;;6238237;28;20381;-73
2024/01/12 13:48:30;;;;;;;1.00;1.00;;;;;;;;;;6237942;28;20300;-72
2024/01/12 13:51:36;;;;;;;1.23;1.13;;;;;;;;;;6223301;28;20293;-72
2024/01/12 13:54:40;;;;;;;0.90;0.90;;;;;;;;;;6214110;28;20293;-74
2024/01/12 13:57:46;;;;;;;0.88;0.88;;;;;;;;;;6185757;28;20292;-74
2024/01/12 14:00:50;;;;;;;0.90;0.90;;;;;;;;;;6213986;28;20292;-73
2024/01/12 14:03:54;;;;;;;1.00;1.00;;;;;;;;;;6231659;28;20336;-72
2024/01/12 14:06:58;;;;;;;1.23;1.23;;;;;;;;;;6238188;28;20312;-73
2024/01/12 14:10:03;;;;;;;1.70;1.02;;;;;;;;;;6234595;28;20381;-74
2024/01/12 14:13:09;;;;;;;1.10;0.98;;;;;;;;;;6238068;28;20296;-72
2024/01/12 14:16:13;;;;;;;0.90;0.90;;;;;;;;;;6238121;28;20288;-73
2024/01/12 14:19:18;;;;;;;1.25;1.13;;;;;;;;;;6238447;28;20304;-72
2024/01/12 14:22:24;;;;;;;0.80;0.80;;;;;;;;;;6218240;28;20308;-73
2024/01/12 14:25:28;;;;;;;1.30;1.20;;;;;;;;;;6217562;28;20296;-73
2024/01/12 14:28:34;;;;;;;3.13;1.15;;;;;;;;;;6219062;28;20484;-73
2024/01/12 14:31:38;;;;;;;0.77;0.77;;;;;;;;;;6237529;28;20240;-73
2024/01/12 14:34:43;;;;;;;0.90;0.90;;;;;;;;;;6237102;28;20304;-72
2024/01/12 14:37:48;;;;;;;1.65;1.05;;;;;;;;;;6236394;28;20296;-72
2024/01/12 14:40:52;;;;;;;1.17;1.10;;;;;;;;;;6236794;28;20292;-73
2024/01/12 14:43:57;;;;;;;1.00;1.00;;;;;;;;;;6236681;28;20296;-73
2024/01/12 14:47:02;;;;;;;4.72;1.20;;;;;;;;;;6220236;28;20297;-74
2024/01/12 14:50:07;;;;;;;1.00;1.00;;;;;;;;;;6212190;28;20297;-73
2024/01/12 14:53:12;;;;;;;0.95;0.80;;;;;;;;;;6236754;28;20449;-73
2024/01/12 14:56:18;;;;;;;3.03;1.10;;;;;;;;;;6234074;28;20300;-73
2024/01/12 14:59:25;;;;;;;1.55;1.00;;;;;;;;;;6212012;28;20309;-73
2024/01/12 15:02:29;;;;;;;1.30;1.15;;;;;;;;;;6218638;28;20484;-73
2024/01/12 15:05:34;;;;;;;1.90;0.80;;;;;;;;;;6235918;28;20304;-73
2024/01/12 15:08:38;;;;;;;1.03;1.03;;;;;;;;;;6236142;28;20300;-74
2024/01/12 15:11:45;;;;;;;2.00;1.08;;;;;;;;;;6218036;28;20388;-73
2024/01/12 15:14:50;;;;;;;0.90;0.90;;;;;;;;;;6212041;28;20372;-72
2024/01/12 15:17:55;;;;;;;0.90;0.90;;;;;;;;;;6235366;28;20588;-72
2024/01/12 15:20:59;;;;;;;0.90;0.90;;;;;;;;;;6236121;28;20292;-73
2024/01/12 15:24:03;;;;;;;1.10;1.10;;;;;;;;;;6235612;28;20292;-74
2024/01/12 15:27:08;;;;;;;0.98;0.88;;;;;;;;;;6236174;28;20577;-71
2024/01/12 15:30:14;;;;;;;0.90;0.90;;;;;;;;;;6235968;28;20288;-72
2024/01/12 15:33:18;;;;;;;0.90;0.90;;;;;;;;;;6210639;28;20300;-73
2024/01/12 15:36:23;;;;;;;0.90;0.90;;;;;;;;;;6211793;28;20593;-71
2024/01/12 15:39:27;;;;;;;0.80;0.80;;;;;;;;;;6211035;28;20300;-73
2024/01/12 15:42:31;;;;;;;1.90;0.97;;;;;;;;;;6211946;28;20297;-75
2024/01/12 15:45:48;;;;;;;1.50;1.40;;;;;;;;;;6210949;28;20289;-72
2024/01/12 15:48:52;;;;;;;0.88;0.88;;;;;;;;;;6210655;28;20309;-73
2024/01/12 15:51:56;;;;;;;0.80;0.80;;;;;;;;;;6211636;28;20292;-73
2024/01/12 15:55:00;;;;;;;0.90;0.90;;;;;;;;;;6210855;28;20296;-75
2024/01/12 15:58:05;;;;;;;1.20;1.10;;;;;;;;;;6210699;28;20307;-74
2024/01/12 16:01:21;;;;;;;1.00;1.00;;;;;;;;;;6211356;28;20301;-73
2024/01/12 16:04:25;;;;;;;0.93;0.93;;;;;;;;;;6233038;28;20292;-73
2024/01/12 16:07:29;;;;;;;1.00;0.93;;;;;;;;;;6234510;28;20269;-74
2024/01/12 16:10:34;;;;;;;1.10;1.10;;;;;;;;;;6224797;28;20281;-74
2024/01/12 16:13:41;;;;;;;1.90;1.00;;;;;;;;;;6186746;28;20384;-73
2024/01/12 16:16:46;;;;;;;1.10;1.10;;;;;;;;;;6178159;28;20281;-73
2024/01/12 16:19:50;;;;;;;1.43;1.10;;;;;;;;;;6210629;28;20320;-73
2024/01/12 16:22:54;;;;;;;1.63;1.10;;;;;;;;;;6192742;28;20300;-74
2024/01/12 16:25:58;;;;;;;1.27;1.17;;;;;;;;;;6214438;28;20305;-74
2024/01/12 16:29:02;;;;;;;1.30;1.30;;;;;;;;;;6213546;28;20320;-75
2024/01/12 16:32:08;;;;;;;1.77;1.40;;;;;;;;;;6215926;28;20304;-74
2024/01/12 16:35:12;;;;;;;2.50;1.30;;;;;;;;;;6215546;28;20308;-74
2024/01/12 16:38:17;;;;;;;1.67;1.40;;;;;;;;;;6215130;28;20307;-73
2024/01/12 16:41:21;;;;;;;3.27;1.50;;;;;;;;;;6220192;28;20283;-74
2024/01/12 16:44:27;;;;;;;2.93;1.33;;;;;;;;;;6239445;28;20311;-74
2024/01/12 16:47:33;;;;;;;4.60;1.53;;;;;;;;;;6226427;28;20296;-72
2024/01/12 16:50:37;;;;;;;1.50;1.40;;;;;;;;;;6196240;28;20316;-75
2024/01/12 16:53:41;;;;;;;2.43;1.77;;;;;;;;;;6215340;28;20295;-75
2024/01/12 16:56:45;;;;;;;2.00;1.53;;;;;;;;;;6215324;28;20529;-74
2024/01/12 16:59:49;;;;;;;2.40;1.63;;;;;;;;;;6214888;28;20300;-74
2024/01/12 17:02:54;;;;;;;2.97;1.47;;;;;;;;;;6207440;28;20299;-73
2024/01/12 17:05:58;;;;;;;6.13;1.40;;;;;;;;;;6240004;28;20299;-75
2024/01/12 17:09:02;;;;;;;1.20;1.20;;;;;;;;;;6214900;28;20299;-74
2024/01/12 17:12:07;;;;;;;1.17;1.17;;;;;;;;;;6237406;28;20299;-75
2024/01/12 17:15:16;;;;;;;2.07;1.53;;;;;;;;;;6239092;28;20307;-74
2024/01/12 17:18:21;;;;;;;1.20;1.10;;;;;;;;;;6238501;28;20476;-74
2024/01/12 17:21:35;;;;;;;1.37;1.37;;;;;;;;;;6239228;28;20349;-74
2024/01/12 17:24:39;;;;;;;1.47;1.37;;;;;;;;;;6221027;28;20487;-74
2024/01/12 17:27:43;;;;;;;2.87;1.30;;;;;;;;;;6228866;28;20294;-74
2024/01/12 17:30:47;;;;;;;1.47;1.30;;;;;;;;;;6221177;28;20498;-74
2024/01/12 17:33:53;;;;;;;1.13;1.13;;;;;;;;;;6216326;28;20560;-75
2024/01/12 17:36:57;;;;;;;1.27;1.17;;;;;;;;;;6214443;28;20288;-74
2024/01/12 17:40:03;;;;;;;2.53;1.30;;;;;;;;;;6214375;28;20318;-74
2024/01/12 17:43:07;;;;;;;1.83;1.27;;;;;;;;;;6230061;28;20296;-76
2024/01/12 17:46:10;;;;;;;1.47;1.40;;;;;;;;;;6239159;28;20300;-74
2024/01/12 17:49:16;;;;;;;1.33;1.20;;;;;;;;;;6239135;28;20371;-75
2024/01/12 17:52:21;;;;;;;1.47;1.40;;;;;;;;;;6229633;28;20333;-74
2024/01/12 17:55:25;;;;;;;2.13;1.30;;;;;;;;;;6213870;28;20297;-73
2024/01/12 17:58:29;;;;;;;2.57;1.50;;;;;;;;;;6230272;28;20294;-73
2024/01/12 18:01:33;;;;;;;2.13;1.30;;;;;;;;;;6209533;28;20265;-75
2024/01/12 18:04:40;;;;;;;1.13;1.03;;;;;;;;;;6196446;28;20296;-76
2024/01/12 18:07:43;;;;;;;2.13;1.30;;;;;;;;;;6214084;28;20246;-74
2024/01/12 18:10:49;;;;;;;2.10;1.20;;;;;;;;;;6226692;28;20303;-76
2024/01/12 18:13:53;;;;;;;1.30;1.30;;;;;;;;;;6239131;28;20565;-79
2024/01/12 18:16:57;;;;;;;2.47;1.20;;;;;;;;;;6217900;28;20292;-80
2024/01/12 18:20:03;;;;;;;1.15;1.10;;;;;;;;;;6213638;28;20477;-73
2024/01/12 18:23:07;;;;;;;1.17;1.17;;;;;;;;;;6227448;28;20303;-73
2024/01/12 18:26:11;;;;;;;1.60;1.50;;;;;;;;;;6238898;28;20303;-73
2024/01/12 18:29:15;;;;;;;2.87;1.30;;;;;;;;;;6221108;28;20472;-75